Time;durP1;ratioP1;P1;durP2;ratioP2;P2;SDS_P1;SDS_P2;PMS_P1;PMS_P2;Temp;Humidity;BMP_temperature;BMP_pressure;BME280_temperature;BME280_humidity;BME280_pressure;Samples;Min_cycle;Max_cycle;Signal;HPM_P1;HPM_P2
2022/03/09 00:00:37;;;;;;;19.45;6.90;;;;;;;;;;5058693;28;20636;-74
2022/03/09 00:03:03;;;;;;;15.40;7.13;;;;;;;;;;5055856;28;20317;-73
2022/03/09 00:05:29;;;;;;;20.67;7.10;;;;;;;;;;5074423;28;20219;-74
2022/03/09 00:07:55;;;;;;;24.27;7.63;;;;;;;;;;5064113;28;20224;-74
2022/03/09 00:10:27;;;;;;;16.00;7.45;;;;;;;;;;5074808;28;20215;-75
2022/03/09 00:12:57;;;;;;;16.02;7.18;;;;;;;;;;5056364;28;20168;-74
2022/03/09 00:15:27;;;;;;;17.13;6.75;;;;;;;;;;5055760;28;20159;-74
2022/03/09 00:17:53;;;;;;;18.15;8.15;;;;;;;;;;5069642;28;20248;-74
2022/03/09 00:20:19;;;;;;;16.60;7.30;;;;;;;;;;5068658;28;20272;-74
2022/03/09 00:22:51;;;;;;;14.68;6.38;;;;;;;;;;5055971;28;20187;-73
2022/03/09 00:25:17;;;;;;;15.50;6.50;;;;;;;;;;5058347;28;20640;-74
2022/03/09 00:27:43;;;;;;;16.23;6.40;;;;;;;;;;5065071;28;20221;-73
2022/03/09 00:30:09;;;;;;;14.77;6.90;;;;;;;;;;5055462;28;20589;-74
2022/03/09 00:32:39;;;;;;;17.88;6.50;;;;;;;;;;5058936;28;20508;-74
2022/03/09 00:35:09;;;;;;;17.58;7.57;;;;;;;;;;5064623;28;20172;-74
2022/03/09 00:37:45;;;;;;;13.02;6.20;;;;;;;;;;5060050;28;20178;-74
2022/03/09 00:40:11;;;;;;;15.52;6.50;;;;;;;;;;5062583;28;20181;-74
2022/03/09 00:42:51;;;;;;;14.88;5.88;;;;;;;;;;5055188;28;20206;-74
2022/03/09 00:45:17;;;;;;;14.40;5.43;;;;;;;;;;5061766;28;20179;-74
2022/03/09 00:47:43;;;;;;;10.02;4.82;;;;;;;;;;5055251;28;20160;-74
2022/03/09 00:50:15;;;;;;;9.60;4.78;;;;;;;;;;5069146;28;20274;-75
2022/03/09 00:52:41;;;;;;;13.43;5.30;;;;;;;;;;5061199;28;20670;-74
2022/03/09 00:55:08;;;;;;;17.15;6.25;;;;;;;;;;5053535;28;20203;-74
2022/03/09 00:57:39;;;;;;;11.05;5.57;;;;;;;;;;5063761;28;20225;-74
2022/03/09 01:00:09;;;;;;;14.43;5.38;;;;;;;;;;5058704;28;20181;-74
2022/03/09 01:02:46;;;;;;;11.32;4.88;;;-1.70;1.00;;;;;;5054788;28;20172;-74
2022/03/09 01:05:13;;;;;;;12.23;5.50;;;-2.40;1.00;;;;;;5056095;28;20199;-74
2022/03/09 01:07:39;;;;;;;9.60;4.80;;;;;;;;;;5055256;28;20188;-74
2022/03/09 01:10:05;;;;;;;12.25;5.32;;;;;;;;;;5057537;28;20214;-74
2022/03/09 01:12:32;;;;;;;9.95;4.85;;;;;;;;;;5056156;28;20187;-73
2022/03/09 01:14:58;;;;;;;13.38;5.90;;;;;;;;;;5062469;28;20179;-73
2022/03/09 01:17:27;;;;;;;10.88;4.43;;;;;;;;;;5068362;28;20179;-73
2022/03/09 01:19:54;;;;;;;18.55;5.53;;;;;;;;;;5059613;28;20179;-74
2022/03/09 01:22:20;;;;;;;12.00;4.60;;;;;;;;;;5062489;28;20557;-74
2022/03/09 01:24:51;;;;;;;8.93;4.75;;;;;;;;;;5067792;28;20175;-74
2022/03/09 01:27:21;;;;;;;9.70;4.25;;;;;;;;;;5067337;28;20647;-74
2022/03/09 01:30:04;;;;;;;9.25;4.13;;;;;;;;;;5054321;28;20199;-74
2022/03/09 01:32:30;;;;;;;12.07;4.85;;;;;;;;;;5067740;28;20648;-74
2022/03/09 01:34:57;;;;;;;9.07;4.85;;;;;;;;;;5054457;28;20574;-74
2022/03/09 01:37:24;;;;;;;8.27;5.00;;;;;;;;;;5054607;28;20535;-73
2022/03/09 01:39:57;;;;;;;22.55;6.18;;;;;;;;;;5063755;28;20190;-73
2022/03/09 01:42:23;;;;;;;8.30;4.80;;;;;;;;;;5066068;28;20176;-74
2022/03/09 01:44:49;;;;;;;24.00;5.65;;;;;;;;;;5062162;28;20586;-74
2022/03/09 01:47:33;;;;;;;16.45;5.55;;;;;;;;;;5050725;28;20542;-73
2022/03/09 01:49:59;;;;;;;10.38;5.80;;;;;;;;;;5063338;28;20222;-73
2022/03/09 01:52:26;;;;;;;13.45;5.78;;;-1.90;1.00;;;;;;5048609;28;20175;-73
2022/03/09 01:54:53;;;;;;;13.10;5.90;;;;;;;;;;5067247;28;20175;-74
2022/03/09 01:57:20;;;;;;;17.60;6.38;;;-1.80;1.00;;;;;;5054604;28;20178;-74
2022/03/09 01:59:50;;;;;;;17.65;5.90;;;-1.80;1.00;;;;;;5054514;28;20199;-74
2022/03/09 02:02:16;;;;;;;16.17;6.15;;;;;;;;;;5052950;28;20172;-74
2022/03/09 02:04:43;;;;;;;15.73;5.75;;;-1.90;1.00;;;;;;5053678;28;20190;-74
2022/03/09 02:07:09;;;;;;;10.32;4.97;;;;;;;;;;5053557;28;20172;-74
2022/03/09 02:09:44;;;;;;;12.93;5.75;;;-1.90;1.00;;;;;;5054426;28;20545;-74
2022/03/09 02:12:12;;;;;;;20.67;7.13;;;-1.80;1.00;;;;;;5045926;28;20171;-74
2022/03/09 02:14:49;;;;;;;12.88;6.28;;;-1.80;1.00;;;;;;5059433;28;20176;-74
2022/03/09 02:17:26;;;;;;;15.32;6.25;;;-1.80;1.00;;;;;;5053603;28;20167;-74
2022/03/09 02:20:04;;;;;;;9.40;5.00;;;;;;;;;;5059389;28;20185;-74
2022/03/09 02:22:33;;;;;;;12.82;5.90;;;;;;;;;;5061372;28;20201;-73
2022/03/09 02:25:09;;;;;;;15.48;6.05;;;-1.90;1.00;;;;;;5073149;28;20248;-74
2022/03/09 02:27:39;;;;;;;16.13;6.20;;;;;;;;;;5059276;28;20232;-74
2022/03/09 02:30:07;;;;;;;14.05;6.43;;;-2.00;1.00;;;;;;5063135;28;20194;-74
2022/03/09 02:32:33;;;;;;;21.48;6.32;;;;;;;;;;5054596;28;20172;-74
2022/03/09 02:35:11;;;;;;;13.85;6.28;;;-1.90;1.00;;;;;;5049892;28;20182;-74
2022/03/09 02:37:37;;;;;;;17.77;7.22;;;-1.90;1.00;;;;;;5067699;28;20632;-74
2022/03/09 02:40:07;;;;;;;11.93;6.28;;;-1.90;1.00;;;;;;5053291;28;20203;-74
2022/03/09 02:42:45;;;;;;;16.15;6.50;;;;;;;;;;5052848;28;20171;-74
2022/03/09 02:45:12;;;;;;;14.70;6.80;;;-2.00;1.00;;;;;;5052887;28;20179;-74
2022/03/09 02:50:42;;;;;;;14.93;6.13;;;;;;;;;;5042057;28;20222;-74
2022/03/09 02:53:08;;;;;;;19.85;6.65;;;;;;;;;;5053284;28;20167;-74
2022/03/09 02:55:34;;;;;;;16.25;6.97;;;;;;;;;;5057221;28;20772;-74
2022/03/09 02:58:00;;;;;;;18.55;7.25;;;;;;;;;;5062354;28;20176;-74
2022/03/09 03:00:33;;;;;;;13.25;6.35;;;;;;;;;;5053020;28;20179;-74
2022/03/09 03:03:03;;;;;;;11.32;5.85;;;;;;;;;;5052912;28;20612;-74
2022/03/09 03:05:33;;;;;;;12.50;6.80;;;;;;;;;;5052870;28;20195;-74
2022/03/09 03:08:03;;;;;;;12.20;5.60;;;;;;;;;;5051507;28;20615;-74
2022/03/09 03:12:55;;;;;;;14.43;6.63;;;;;;;;;;5032557;28;20228;-74
2022/03/09 03:15:21;;;;;;;26.77;7.03;;;;;;;;;;5036281;28;20176;-75
2022/03/09 03:17:47;;;;;;;18.73;6.87;;;;;;;;;;5036027;28;20957;-74
2022/03/09 03:20:13;;;;;;;15.65;7.50;;;;;;;;;;5035816;28;20423;-74
2022/03/09 03:22:39;;;;;;;27.60;6.97;;;;;;;;;;5018105;28;20261;-75
2022/03/09 03:25:05;;;;;;;15.57;7.28;;;;;;;;;;5036717;28;20422;-74
2022/03/09 03:27:31;;;;;;;16.42;6.65;;;;;;;;;;5036036;28;20191;-74
2022/03/09 03:29:57;;;;;;;12.03;6.07;;;;;;;;;;5035934;28;20569;-73
2022/03/09 03:32:23;;;;;;;18.83;7.50;;;;;;;;;;5036045;28;20430;-73
2022/03/09 03:34:49;;;;;;;33.40;8.60;;;;;;;;;;5033661;28;20914;-73
2022/03/09 03:37:15;;;;;;;17.97;7.60;;;;;;;;;;5035749;28;20437;-73
2022/03/09 03:39:41;;;;;;;29.15;7.85;;;;;;;;;;5035108;28;20418;-73
2022/03/09 03:42:07;;;;;;;18.00;7.50;;;;;;;;;;5035886;28;20521;-73
2022/03/09 03:44:33;;;;;;;14.33;6.90;;;;;;;;;;5035625;28;20442;-73
2022/03/09 03:46:59;;;;;;;14.70;6.68;;;;;;;;;;5035384;28;20839;-72
2022/03/09 03:49:25;;;;;;;17.00;7.00;;;;;;;;;;5035817;28;20200;-72
2022/03/09 03:51:51;;;;;;;15.93;7.90;;;;;;;;;;5035431;28;20433;-73
2022/03/09 03:54:17;;;;;;;15.63;7.30;;;;;;;;;;5035743;28;20608;-72
2022/03/09 03:56:45;;;;;;;17.20;7.40;;;;;;;;;;5035765;28;20445;-73
2022/03/09 03:59:11;;;;;;;14.95;7.10;;;;;;;;;;5035681;28;20431;-73
2022/03/09 04:01:37;;;;;;;15.35;7.30;;;;;;;;;;5035241;28;20272;-73
2022/03/09 04:04:03;;;;;;;15.67;7.37;;;;;;;;;;5035324;28;20212;-73
2022/03/09 04:06:29;;;;;;;18.35;7.30;;;-2.60;1.00;;;;;;5035626;28;20418;-73
2022/03/09 04:08:55;;;;;;;19.58;7.53;;;;;;;;;;5035173;28;20212;-73
2022/03/09 04:11:21;;;;;;;16.27;7.13;;;;;;;;;;5041645;28;20218;-72
2022/03/09 04:13:47;;;;;;;18.52;7.00;;;;;;;;;;5043410;28;20421;-72
2022/03/09 04:16:13;;;;;;;13.13;6.40;;;;;;;;;;5037773;28;20174;-73
2022/03/09 04:18:39;;;;;;;12.38;6.28;;;;;;;;;;5049709;28;20215;-73
2022/03/09 04:21:05;;;;;;;17.50;7.97;;;;;;;;;;5049558;28;20199;-72
2022/03/09 04:23:31;;;;;;;16.60;6.90;;;;;;;;;;5043899;28;20418;-72
2022/03/09 04:25:57;;;;;;;24.25;7.50;;;;;;;;;;5048696;28;20421;-72
2022/03/09 04:28:23;;;;;;;14.85;6.93;;;;;;;;;;5014096;28;20173;-73
2022/03/09 04:30:49;;;;;;;13.40;6.07;;;;;;;;;;5032124;28;20231;-73
2022/03/09 04:33:15;;;;;;;14.63;7.05;;;;;;;;;;5044234;28;20433;-73
2022/03/09 04:35:41;;;;;;;15.93;6.60;;;;;;;;;;5051744;28;20184;-73
2022/03/09 04:38:07;;;;;;;18.03;6.70;;;;;;;;;;5037559;28;20450;-73
2022/03/09 04:40:33;;;;;;;14.32;6.65;;;;;;;;;;5050577;28;20438;-72
2022/03/09 04:42:59;;;;;;;15.55;7.43;;;;;;;;;;5046768;28;20245;-72
2022/03/09 04:45:25;;;;;;;24.30;8.10;;;;;;;;;;5039032;28;20180;-73
2022/03/09 04:47:51;;;;;;;14.70;6.73;;;;;;;;;;5038326;28;20426;-73
2022/03/09 04:50:17;;;;;;;18.02;6.75;;;;;;;;;;5050105;28;20545;-73
2022/03/09 04:52:43;;;;;;;13.73;7.03;;;;;;;;;;5040131;28;20177;-73
2022/03/09 04:55:09;;;;;;;12.07;6.27;;;;;;;;;;5050133;28;20521;-73
2022/03/09 04:57:38;;;;;;;16.83;6.67;;;;;;;;;;5048768;28;20441;-72
2022/03/09 05:00:08;;;;;;;22.90;7.53;;;;;;;;;;5043821;28;20930;-72
2022/03/09 05:02:34;;;;;;;12.63;6.63;;;;;;;;;;5032029;28;20191;-73
2022/03/09 05:05:01;;;;;;;16.38;7.65;;;;;;;;;;5037126;28;20541;-72
2022/03/09 05:07:27;;;;;;;14.50;7.20;;;;;;;;;;5025728;28;20176;-73
2022/03/09 05:09:52;;;;;;;14.43;6.45;;;-2.50;1.00;;;;;;5039958;28;20233;-73
2022/03/09 05:12:18;;;;;;;14.10;7.10;;;;;;;;;;5054792;28;20266;-72
2022/03/09 05:14:44;;;;;;;19.10;7.63;;;;;;;;;;5034304;28;20251;-72
2022/03/09 05:17:10;;;;;;;15.32;6.88;;;;;;;;;;5035269;28;20259;-72
2022/03/09 05:19:36;;;;;;;15.60;6.80;;;;;;;;;;5038083;28;20206;-73
2022/03/09 05:22:03;;;;;;;17.27;7.00;;;;;;;;;;5036387;28;20437;-73
2022/03/09 05:24:29;;;;;;;15.77;7.32;;;;;;;;;;5025195;28;20271;-72
2022/03/09 05:26:56;;;;;;;18.65;7.50;;;;;;;;;;5043087;28;20180;-72
2022/03/09 05:29:22;;;;;;;15.35;7.20;;;;;;;;;;5040797;28;20215;-73
2022/03/09 05:31:48;;;;;;;14.63;6.53;;;;;;;;;;5043533;28;20576;-73
2022/03/09 05:34:14;;;;;;;14.23;6.78;;;;;;;;;;5038427;28;20208;-72
2022/03/09 05:36:41;;;;;;;15.32;7.35;;;-2.30;1.00;;;;;;5050812;28;20187;-73
2022/03/09 05:39:07;;;;;;;19.98;7.72;;;;;;;;;;5053501;28;20187;-72
2022/03/09 05:41:33;;;;;;;13.93;6.82;;;;;;;;;;5048345;28;20702;-73
2022/03/09 05:44:00;;;;;;;16.65;6.32;;;;;;;;;;5035892;28;20242;-74
2022/03/09 05:46:26;;;;;;;12.18;6.10;;;;;;;;;;5043160;28;20184;-73
2022/03/09 05:48:52;;;;;;;11.73;6.20;;;;;;;;;;5036122;28;20672;-73
2022/03/09 05:51:18;;;;;;;15.95;6.75;;;;;;;;;;5044279;28;20603;-73
2022/03/09 05:53:44;;;;;;;12.90;6.72;;;;;;;;;;5039069;28;20191;-73
2022/03/09 05:56:10;;;;;;;15.00;6.72;;;;;;;;;;5045673;28;20633;-73
2022/03/09 05:58:36;;;;;;;13.70;5.97;;;;;;;;;;5047054;28;20645;-73
2022/03/09 06:01:02;;;;;;;25.92;7.50;;;;;;;;;;5033161;28;20180;-73
2022/03/09 06:03:28;;;;;;;14.35;5.82;;;;;;;;;;5038405;28;20542;-73
2022/03/09 06:05:54;;;;;;;11.20;6.20;;;;;;;;;;5042720;28;20658;-73
2022/03/09 06:08:20;;;;;;;15.63;6.50;;;;;;;;;;5043180;28;20180;-72
2022/03/09 06:10:46;;;;;;;12.70;6.10;;;;;;;;;;5035124;28;20218;-73
2022/03/09 06:13:12;;;;;;;13.23;6.10;;;;;;;;;;5028492;28;20916;-73
2022/03/09 06:15:38;;;;;;;23.93;6.40;;;;;;;;;;5032812;28;20420;-72
2022/03/09 06:18:04;;;;;;;17.92;6.95;;;;;;;;;;5014877;28;20842;-73
2022/03/09 06:20:30;;;;;;;11.82;5.53;;;;;;;;;;5032803;28;20188;-72
2022/03/09 06:22:56;;;;;;;15.03;6.63;;;;;;;;;;5030771;28;20539;-73
2022/03/09 06:25:22;;;;;;;22.25;7.03;;;;;;;;;;5029365;28;20438;-73
2022/03/09 06:27:51;;;;;;;13.63;6.28;;;-2.20;1.00;;;;;;5032378;28;20284;-73
2022/03/09 06:30:18;;;;;;;13.10;6.32;;;-2.10;1.00;;;;;;5033148;28;20252;-73
2022/03/09 06:32:45;;;;;;;14.30;6.57;;;-2.20;1.00;;;;;;5032314;28;20184;-73
2022/03/09 06:35:11;;;;;;;14.55;6.40;;;;;;;;;;5032402;28;20184;-73
2022/03/09 06:37:37;;;;;;;15.73;6.40;;;;;;;;;;5032786;28;20183;-73
2022/03/09 06:40:05;;;;;;;14.13;6.57;;;-2.00;1.00;;;;;;5032699;28;20180;-73
2022/03/09 06:42:31;;;;;;;14.55;6.45;;;;;;;;;;5032724;28;20671;-73
2022/03/09 06:44:57;;;;;;;17.83;6.95;;;;;;;;;;5032715;28;20584;-73
2022/03/09 06:47:23;;;;;;;17.45;7.18;;;;;;;;;;5032784;28;20179;-73
2022/03/09 06:49:50;;;;;;;15.13;6.70;;;;;;;;;;5031956;28;20210;-73
2022/03/09 06:52:16;;;;;;;16.10;6.78;;;;;;;;;;5025865;28;20261;-72
2022/03/09 06:54:42;;;;;;;13.88;6.53;;;;;;;;;;5025285;28;20636;-73
2022/03/09 06:57:16;;;;;;;18.60;6.93;;;;;;;;;;5033480;28;20195;-73
2022/03/09 06:59:44;;;;;;;30.63;8.20;;;;;;;;;;5022724;28;20169;-73
2022/03/09 07:02:10;;;;;;;16.33;6.43;;;;;;;;;;5020448;28;20184;-73
2022/03/09 07:04:37;;;;;;;15.77;6.88;;;;;;;;;;5033197;28;20639;-73
2022/03/09 07:07:03;;;;;;;37.00;8.10;;;;;;;;;;5032198;28;20196;-73
2022/03/09 07:09:29;;;;;;;18.17;7.47;;;;;;;;;;5013239;28;20220;-72
2022/03/09 07:11:57;;;;;;;17.70;7.28;;;;;;;;;;5024414;28;20189;-72
2022/03/09 07:14:23;;;;;;;17.70;7.20;;;;;;;;;;5032146;28;20172;-72
2022/03/09 07:16:49;;;;;;;12.47;6.93;;;;;;;;;;5031294;28;20176;-72
2022/03/09 07:19:16;;;;;;;19.88;7.78;;;;;;;;;;5029987;28;20434;-72
2022/03/09 07:21:42;;;;;;;15.07;6.65;;;;;;;;;;5026750;28;20184;-72
2022/03/09 07:24:08;;;;;;;23.55;7.35;;;;;;;;;;5031210;28;20185;-73
2022/03/09 07:26:40;;;;;;;17.40;7.15;;;;;;;;;;5026123;28;20195;-72
2022/03/09 07:29:06;;;;;;;16.70;7.80;;;;;;;;;;5031690;28;20242;-73
2022/03/09 07:31:32;;;;;;;24.98;8.20;;;;;;;;;;5027647;28;20192;-73
2022/03/09 07:33:58;;;;;;;14.93;7.22;;;;;;;;;;5028341;28;20764;-73
2022/03/09 07:36:24;;;;;;;19.08;8.15;;;;;;;;;;5031021;28;20226;-73
2022/03/09 07:38:51;;;;;;;16.90;7.80;;;;;;;;;;5031618;28;20188;-73
2022/03/09 07:41:17;;;;;;;14.07;7.10;;;;;;;;;;5020585;28;20427;-73
2022/03/09 07:43:43;;;;;;;22.53;7.50;;;;;;;;;;5030376;28;20184;-72
2022/03/09 07:46:09;;;;;;;23.13;7.10;;;;;;;;;;5031263;28;20791;-72
2022/03/09 07:48:36;;;;;;;23.63;7.40;;;;;;;;;;5031285;28;20554;-72
2022/03/09 07:51:02;;;;;;;16.30;7.20;;;;;;;;;;5031894;28;20280;-72
2022/03/09 07:53:28;;;;;;;35.17;7.10;;;;;;;;;;5029482;28;20207;-72
2022/03/09 07:55:54;;;;;;;13.35;6.75;;;;;;;;;;5031601;28;20234;-72
2022/03/09 07:58:20;;;;;;;16.48;7.15;;;;;;;;;;5031656;28;20184;-72
2022/03/09 08:00:46;;;;;;;13.30;6.67;;;;;;;;;;5032960;28;20606;-72
2022/03/09 08:03:12;;;;;;;24.27;8.00;;;;;;;;;;5017088;28;20453;-72
2022/03/09 08:05:38;;;;;;;19.03;7.03;;;;;;;;;;5017635;28;20804;-73
2022/03/09 08:08:04;;;;;;;15.27;6.93;;;;;;;;;;5034615;28;20427;-73
2022/03/09 08:10:30;;;;;;;17.70;6.78;;;;;;;;;;5034254;28;20224;-72
2022/03/09 08:12:56;;;;;;;14.73;6.20;;;;;;;;;;5033546;28;20176;-73
2022/03/09 08:15:22;;;;;;;14.07;6.43;;;;;;;;;;5035387;28;20876;-73
2022/03/09 08:17:48;;;;;;;8.80;4.35;;;;;;;;;;5034757;28;20214;-73
2022/03/09 08:20:14;;;;;;;12.20;4.90;;;;;;;;;;5035017;28;20195;-73
2022/03/09 08:22:41;;;;;;;11.85;5.13;;;;;;;;;;5035110;28;20454;-73
2022/03/09 08:25:08;;;;;;;11.65;4.97;;;;;;;;;;5016998;28;20547;-73
2022/03/09 08:27:34;;;;;;;22.58;5.60;;;;;;;;;;5032250;28;20199;-72
2022/03/09 08:30:00;;;;;;;14.20;5.30;;;;;;;;;;5034822;28;20208;-72
2022/03/09 08:32:26;;;;;;;16.35;4.47;;;;;;;;;;5034542;28;20410;-72
2022/03/09 08:34:54;;;;;;;24.25;5.03;;;;;;;;;;5033862;28;20184;-72
2022/03/09 08:37:20;;;;;;;11.00;4.60;;;;;;;;;;5035045;28;20581;-72
2022/03/09 08:39:48;;;;;;;21.10;5.30;;;;;;;;;;5034083;28;20180;-72
2022/03/09 08:42:14;;;;;;;10.02;3.60;;;;;;;;;;5034822;28;20743;-72
2022/03/09 08:44:40;;;;;;;13.43;4.38;;;;;;;;;;5034659;28;20578;-72
2022/03/09 08:47:06;;;;;;;12.60;5.05;;;;;;;;;;5034478;28;20187;-72
2022/03/09 08:49:33;;;;;;;14.30;4.85;;;;;;;;;;5034257;28;20694;-72
2022/03/09 08:51:59;;;;;;;17.40;4.73;;;;;;;;;;5034549;28;20180;-72
2022/03/09 08:54:25;;;;;;;12.93;5.50;;;;;;;;;;5034162;28;20423;-72
2022/03/09 08:56:51;;;;;;;12.33;4.33;;;;;;;;;;5034620;28;20411;-72
2022/03/09 08:59:17;;;;;;;34.70;7.50;;;;;;;;;;5032525;28;20818;-73
2022/03/09 09:01:43;;;;;;;10.27;4.73;;;;;;;;;;5033869;28;20446;-74
2022/03/09 09:04:09;;;;;;;10.80;4.30;;;;;;;;;;5034181;28;20915;-73
2022/03/09 09:06:35;;;;;;;19.20;4.63;;;;;;;;;;5023598;28;20526;-73
2022/03/09 09:09:01;;;;;;;51.13;7.50;;;;;;;;;;5032447;28;20465;-74
2022/03/09 09:11:27;;;;;;;11.93;4.50;;;;;;;;;;5034028;28;20443;-73
2022/03/09 09:13:54;;;;;;;10.27;4.60;;;;;;;;;;5034231;28;20480;-72
2022/03/09 09:16:21;;;;;;;13.57;4.93;;;;;;;;;;5032510;28;20442;-72
2022/03/09 09:18:47;;;;;;;11.37;5.53;;;;;;;;;;5029542;28;20419;-72
2022/03/09 09:21:14;;;;;;;14.97;5.10;;;;;;;;;;5034137;28;20545;-72
2022/03/09 09:23:41;;;;;;;14.33;5.17;;;;;;;;;;5020818;28;20959;-72
2022/03/09 09:26:07;;;;;;;8.80;4.60;;;;;;;;;;5016015;28;20419;-72
2022/03/09 09:28:33;;;;;;;12.50;5.47;;;;;;;;;;5034031;28;20502;-73
2022/03/09 09:30:59;;;;;;;12.00;4.83;;;;;;;;;;5033916;28;20502;-73
2022/03/09 09:33:25;;;;;;;14.23;5.23;;;;;;;;;;5033584;28;20834;-73
2022/03/09 09:35:51;;;;;;;11.80;5.40;;;;;;;;;;5025703;28;20415;-74
2022/03/09 09:38:18;;;;;;;13.47;5.23;;;;;;;;;;5033397;28;20463;-73
2022/03/09 09:40:45;;;;;;;11.47;4.87;;;;;;;;;;5033181;28;20426;-73
2022/03/09 09:43:12;;;;;;;15.87;5.27;;;7.10;99.90;;;;;;5023521;28;20411;-74
2022/03/09 09:45:39;;;;;;;12.27;5.23;;;;;;;;;;5033612;28;20712;-74
2022/03/09 09:48:06;;;;;;;13.03;5.43;;;7.20;99.90;;;;;;5033730;28;20915;-74
2022/03/09 09:50:32;;;;;;;11.53;5.10;;;;;;;;;;5033410;28;20480;-73
2022/03/09 09:52:58;;;;;;;14.63;5.53;;;;;;;;;;5033637;28;20430;-74
2022/03/09 09:55:27;;;;;;;21.67;5.87;;;7.40;99.90;;;;;;5033444;28;20423;-74
2022/03/09 09:57:54;;;;;;;10.27;5.40;;;7.50;99.90;;;;;;5033569;28;20813;-74
2022/03/09 10:00:20;;;;;;;16.77;6.07;;;;;;;;;;5033575;28;20751;-71
2022/03/09 10:02:47;;;;;;;17.73;6.10;;;;;;;;;;5031187;28;20438;-71
2022/03/09 10:05:15;;;;;;;15.33;5.60;;;;;;;;;;5032545;28;20427;-72
2022/03/09 10:08:02;;;;;;;13.60;5.67;;;7.90;99.90;;;;;;5019372;28;20426;-72
2022/03/09 10:10:29;;;;;;;18.00;5.97;;;;;;;;;;5036973;28;20577;-72
2022/03/09 10:13:27;;;;;;;13.63;5.70;;;8.10;99.90;;;;;;5031046;28;20431;-72
2022/03/09 10:16:12;;;;;;;10.87;5.20;;;;;;;;;;4947382;29;20478;-72
2022/03/09 10:18:39;;;;;;;16.40;5.97;;;;;;;;;;4953242;29;20415;-72
2022/03/09 10:21:09;;;;;;;22.07;6.30;;;;;;;;;;4953083;29;20980;-73
2022/03/09 10:23:51;;;;;;;14.93;5.97;;;8.40;99.90;;;;;;4952447;28;20419;-73
2022/03/09 10:26:44;;;;;;;16.13;6.00;;;8.50;99.90;;;;;;4954015;28;20604;-73
2022/03/09 10:29:18;;;;;;;15.87;5.80;;;8.60;99.90;;;;;;4953304;29;20528;-72
2022/03/09 10:31:45;;;;;;;16.57;6.20;;;;;;;;;;4949702;29;20430;-72
2022/03/09 10:34:16;;;;;;;18.33;5.70;;;8.80;99.90;;;;;;4951829;29;20423;-76
2022/03/09 10:37:06;;;;;;;9.83;5.43;;;8.90;99.90;;;;;;4953107;29;20802;-75
2022/03/09 10:39:34;;;;;;;12.90;5.77;;;9.00;99.90;;;;;;4953366;29;20418;-76
2022/03/09 10:42:21;;;;;;;9.53;5.17;;;9.10;99.90;;;;;;4953669;29;20415;-76
2022/03/09 10:44:53;;;;;;;10.67;5.60;;;;;;;;;;4946334;28;20427;-75
2022/03/09 10:47:34;;;;;;;12.53;5.80;;;9.10;99.90;;;;;;4947715;29;20423;-76
2022/03/09 10:50:09;;;;;;;12.47;6.20;;;9.30;99.90;;;;;;4952225;29;20444;-75
2022/03/09 10:53:04;;;;;;;13.93;6.57;;;9.30;99.90;;;;;;4997657;28;20481;-75
2022/03/09 10:55:35;;;;;;;11.43;5.90;;;;;;;;;;4938979;29;20440;-71
2022/03/09 10:58:19;;;;;;;11.90;6.20;;;9.60;99.90;;;;;;4936579;29;20442;-74
2022/03/09 11:00:50;;;;;;;29.37;7.40;;;9.70;99.90;;;;;;4934407;29;20614;-73
2022/03/09 11:03:21;;;;;;;19.30;6.73;;;9.60;99.90;;;;;;4942340;29;20438;-73
2022/03/09 11:05:57;;;;;;;17.23;6.60;;;9.60;99.90;;;;;;4914988;29;20424;-74
2022/03/09 11:08:31;;;;;;;22.70;7.73;;;9.60;99.90;;;;;;4941936;29;20896;-73
2022/03/09 11:11:00;;;;;;;17.20;7.13;;;9.90;99.90;;;;;;4933981;29;20831;-73
2022/03/09 11:13:28;;;;;;;14.40;7.10;;;;;;;;;;4922740;29;20435;-73
2022/03/09 11:15:55;;;;;;;16.87;6.73;;;;;;;;;;4917142;29;20470;-74
2022/03/09 11:18:28;;;;;;;22.80;7.60;;;;;;;;;;4933314;29;20419;-74
2022/03/09 11:21:07;;;;;;;15.27;6.90;;;9.80;99.90;;;;;;4933331;29;20424;-74
2022/03/09 11:23:38;;;;;;;18.10;6.77;;;9.90;99.90;;;;;;4933570;29;20415;-74
2022/03/09 11:26:10;;;;;;;17.77;7.53;;;;;;;;;;4932890;29;20421;-75
2022/03/09 11:28:39;;;;;;;14.23;6.60;;;10.20;99.90;;;;;;4932625;29;20426;-74
2022/03/09 11:31:10;;;;;;;11.50;6.00;;;10.40;99.90;;;;;;4915461;28;20807;-75
2022/03/09 11:33:39;;;;;;;18.67;6.93;;;;;;;;;;5008064;28;20440;-74
2022/03/09 11:36:26;;;;;;;50.07;6.60;;;;;;;;;;5016572;28;20547;-74
2022/03/09 11:39:17;;;;;;;16.20;5.90;;;10.50;99.90;;;;;;5017097;28;20433;-74
2022/03/09 11:41:44;;;;;;;12.37;5.60;;;;;;;;;;5016747;28;20423;-74
2022/03/09 11:44:20;;;;;;;25.27;7.00;;;;;;;;;;5010163;28;20422;-75
2022/03/09 11:46:58;;;;;;;29.00;7.00;;;;;;;;;;5014506;28;20388;-74
2022/03/09 11:49:55;;;;;;;12.50;6.10;;;;;;;;;;5013672;28;20445;-74
2022/03/09 11:52:28;;;;;;;19.00;6.20;;;;;;;;;;4964468;28;20417;-74
2022/03/09 11:55:01;;;;;;;61.37;9.70;;;11.10;99.90;;;;;;4971107;28;20899;-74
2022/03/09 11:57:45;;;;;;;12.67;6.20;;;;;;;;;;4984299;28;20892;-73
2022/03/09 12:00:18;;;;;;;15.67;5.57;;;11.40;99.90;;;;;;4974658;28;20439;-75
2022/03/09 12:02:57;;;;;;;61.60;9.57;;;11.50;99.90;;;;;;4972437;28;20499;-74
2022/03/09 12:05:31;;;;;;;12.23;5.87;;;;;;;;;;4974198;28;20772;-74
2022/03/09 12:07:58;;;;;;;15.87;5.70;;;;;;;;;;4975205;28;20524;-74
2022/03/09 12:10:42;;;;;;;12.50;5.57;;;11.40;99.90;;;;;;4975099;28;20481;-74
2022/03/09 12:13:11;;;;;;;12.07;5.40;;;;;;;;;;4974901;28;20412;-74
2022/03/09 12:15:59;;;;;;;14.20;6.20;;;11.60;99.90;;;;;;4974590;28;20409;-74
2022/03/09 12:18:57;;;;;;;16.10;6.77;;;11.60;99.90;;;;;;4975140;28;20422;-74
2022/03/09 12:21:29;;;;;;;17.87;6.90;;;;;;;;;;4900399;29;20428;-74
2022/03/09 12:24:01;;;;;;;13.53;5.50;;;;;;;;;;4910816;29;20522;-74
2022/03/09 12:26:46;;;;;;;14.63;5.70;;;11.80;99.90;;;;;;4911180;29;20472;-74
2022/03/09 12:29:21;;;;;;;11.30;5.77;;;;;;;;;;4911103;29;20512;-74
2022/03/09 12:32:02;;;;;;;11.83;6.60;;;11.90;99.90;;;;;;4917608;29;20505;-74
2022/03/09 12:34:35;;;;;;;19.43;6.60;;;12.10;99.90;;;;;;4928574;29;20427;-74
2022/03/09 12:37:01;;;;;;;12.20;5.87;;;;;;;;;;4926052;29;20499;-74
2022/03/09 12:39:27;;;;;;;12.87;6.00;;;;;;;;;;4923161;29;20928;-75
2022/03/09 12:41:58;;;;;;;13.60;6.47;;;12.20;99.90;;;;;;4929659;29;20470;-76
2022/03/09 12:44:25;;;;;;;12.77;5.70;;;;;;;;;;4924102;29;20439;-74
2022/03/09 12:46:52;;;;;;;15.33;6.40;;;12.50;99.90;;;;;;4921823;29;20416;-75
2022/03/09 12:49:22;;;;;;;14.70;6.70;;;;;;;;;;4917932;29;20464;-76
2022/03/09 12:51:54;;;;;;;14.97;7.47;;;;;;;;;;4916681;29;20464;-76
2022/03/09 12:54:35;;;;;;;26.53;7.53;;;;;;;;;;4927658;29;20446;-76
2022/03/09 12:57:28;;;;;;;13.73;6.77;;;13.00;99.90;;;;;;4932689;28;20397;-75
2022/03/09 13:00:16;;;;;;;16.50;7.23;;;;;;;;;;5015331;28;20460;-75
2022/03/09 13:02:46;;;;;;;18.30;7.57;;;;;;;;;;5015654;28;20404;-75
2022/03/09 13:05:20;;;;;;;16.60;7.20;;;13.10;99.90;;;;;;5015315;28;20515;-76
2022/03/09 13:07:58;;;;;;;20.73;8.07;;;;;;;;;;5015360;28;20450;-76
2022/03/09 13:10:25;;;;;;;14.43;7.30;;;13.00;99.90;;;;;;5016799;28;20553;-75
2022/03/09 13:12:58;;;;;;;24.63;8.17;;;13.10;99.90;;;;;;5015470;28;20418;-76
2022/03/09 13:15:36;;;;;;;15.40;6.57;;;;;;;;;;5015414;28;20402;-77
2022/03/09 13:18:04;;;;;;;14.60;6.97;;;;;;;;;;5013302;28;20415;-79
2022/03/09 13:20:57;;;;;;;13.07;6.53;;;13.20;99.90;;;;;;5015200;28;20477;-79
2022/03/09 13:23:44;;;;;;;19.50;6.83;;;;;;;;;;5015081;28;20427;-79
2022/03/09 13:26:14;;;;;;;20.43;7.33;;;;;;;;;;5014233;28;20420;-75
2022/03/09 13:28:40;;;;;;;15.50;7.33;;;;;;;;;;5014434;28;20413;-74
2022/03/09 13:31:06;;;;;;;18.80;7.57;;;;;;;;;;5014172;28;20527;-74
2022/03/09 13:33:32;;;;;;;15.87;7.13;;;;;;;;;;5014956;28;20424;-74
2022/03/09 13:35:58;;;;;;;17.83;6.87;;;;;;;;;;5014508;28;20467;-74
2022/03/09 13:38:27;;;;;;;18.03;7.20;;;13.60;99.90;;;;;;5014499;28;20397;-74
2022/03/09 13:41:03;;;;;;;16.07;7.43;;;13.70;99.90;;;;;;5014594;28;20889;-74
2022/03/09 13:43:33;;;;;;;32.63;8.20;;;13.80;99.90;;;;;;5014339;28;20494;-75
2022/03/09 13:46:19;;;;;;;15.90;7.60;;;13.80;99.90;;;;;;5014249;28;20463;-74
2022/03/09 13:48:45;;;;;;;23.67;7.43;;;;;;;;;;5001077;28;20442;-75
2022/03/09 13:51:11;;;;;;;12.07;6.40;;;;;;;;;;5008690;28;20454;-75
2022/03/09 13:53:39;;;;;;;19.63;6.90;;;13.80;99.90;;;;;;5013049;28;20871;-75
2022/03/09 13:56:23;;;;;;;16.50;6.60;;;;;;;;;;5012954;28;20501;-75
2022/03/09 13:58:52;;;;;;;15.20;7.27;;;;;;;;;;5002314;28;20901;-73
2022/03/09 14:01:32;;;;;;;16.00;7.00;;;14.00;99.90;;;;;;5014029;28;20420;-76
2022/03/09 14:04:06;;;;;;;15.23;6.80;;;14.00;99.90;;;;;;5015085;28;20408;-86
2022/03/09 14:06:35;;;;;;;11.10;6.33;;;;;;;;;;5014290;28;20520;-84
2022/03/09 14:09:21;;;;;;;12.37;7.37;;;14.00;99.90;;;;;;5014547;28;20388;-84
2022/03/09 14:12:33;;;;;;;13.23;7.07;;;13.90;99.90;;;;;;5008806;28;20492;-84
2022/03/09 14:15:34;;;;;;;16.43;6.53;;;13.80;99.90;;;;;;5022464;28;20419;-84
2022/03/09 14:18:04;;;;;;;13.50;7.10;;;;;;;;;;5028000;28;21052;-84
2022/03/09 14:20:31;;;;;;;11.00;6.03;;;;;;;;;;5034323;28;20385;-85
2022/03/09 14:22:57;;;;;;;13.43;6.33;;;;;;;;;;5025858;28;20492;-85